Date,TemperatureHighF,TemperatureAvgF,TemperatureLowF,DewpointHighF,DewpointAvgF,DewpointLowF,HumidityHigh,HumidityAvg,HumidityLow,PressureMaxIn,PressureMinIn,WindSpeedMaxMPH,WindSpeedAvgMPH,GustSpeedMaxMPH,PrecipitationSumIn
2013-10-1,77.4,62.5,54.1,64.4,57.8,53.2,98,86,55,30.12,30.02,6,0,10,0.00
2013-10-2,78.8,63.4,52.9,66.4,59.2,52.0,98,87,59,30.14,30.05,7,0,8,0.00
2013-10-3,80.4,66.8,57.9,68.5,62.7,57.0,98,88,63,30.12,30.02,6,0,7,0.01
2013-10-4,81.7,68.8,61.3,69.1,64.4,60.4,98,87,60,30.13,30.03,7,0,9,0.00
2013-10-5,82.8,69.5,60.1,69.4,64.3,59.5,98,85,58,30.10,29.97,7,0,10,0.00
2013-10-6,85.3,73.1,63.1,68.0,62.7,57.6,97,73,45,29.98,29.76,14,1,15,0.00
2013-10-7,72.9,57.6,43.5,60.6,50.8,42.3,96,79,54,30.15,29.68,10,1,11,0.59
2013-10-8,68.5,50.9,37.8,52.3,44.2,37.0,98,81,44,30.32,30.15,6,0,7,0.00
2013-10-9,68.2,52.5,41.2,49.6,43.1,34.7,97,75,31,30.32,30.23,9,0,12,0.01
2013-10-10,67.5,57.6,50.5,57.6,49.1,40.8,93,74,57,30.23,30.08,9,0,10,0.00
2013-10-11,58.6,55.2,52.2,56.3,53.4,50.7,97,94,88,30.09,30.04,2,0,3,0.10
2013-10-12,73.6,61.7,54.7,63.1,57.9,53.8,98,88,68,30.16,30.05,8,0,8,0.00
2013-10-13,74.5,63.8,56.7,60.8,57.1,53.6,92,79,61,30.25,30.14,11,1,11,0.02
2013-10-14,66.2,59.9,55.4,60.8,57.1,53.4,96,91,80,30.29,30.21,4,0,5,0.11
2013-10-15,74.5,62.3,52.0,62.8,55.7,51.1,98,80,56,30.22,29.99,8,0,8,0.01
2013-10-16,70.0,62.3,53.8,60.6,55.7,48.9,92,80,64,30.00,29.88,8,0,10,0.00
2013-10-17,63.1,56.9,49.6,60.1,55.2,46.9,96,94,88,29.94,29.68,11,0,12,0.32
2013-10-18,61.9,50.1,39.0,47.7,43.3,37.8,96,79,46,30.08,29.93,7,1,9,0.00
2013-10-19,56.1,44.5,34.3,49.3,41.6,33.6,98,90,72,30.02,29.81,13,1,14,0.09
2013-10-20,58.1,45.5,37.4,42.3,38.2,35.6,95,78,45,30.10,30.00,13,1,16,0.00
2013-10-21,66.4,48.9,33.4,45.7,38.7,32.4,97,73,34,30.11,29.90,10,1,11,0.00
2013-10-22,58.6,47.7,36.9,46.9,39.2,32.0,95,74,45,30.00,29.87,7,1,9,0.21
2013-10-23,40.8,38.7,36.0,38.8,36.9,34.5,96,93,88,30.00,29.78,7,0,8,0.23
2013-10-24,42.6,37.5,33.1,35.2,33.5,30.4,93,85,65,30.22,29.99,10,1,11,0.03
2013-10-25,43.3,34.9,27.7,34.3,30.9,26.4,96,86,65,30.43,30.22,8,1,10,0.02
2013-10-26,50.2,42.1,31.6,31.3,28.4,25.9,84,60,39,30.35,29.96,15,2,18,0.00
2013-10-27,55.2,42.2,30.6,37.0,32.6,28.6,96,71,41,30.15,30.03,6,0,7,0.00
2013-10-28,60.8,41.6,28.0,43.7,33.9,27.0,97,78,37,30.32,30.14,6,0,7,0.00
2013-10-29,60.4,43.0,28.6,43.3,35.7,27.5,97,79,40,30.42,30.28,4,0,5,0.00
2013-10-30,60.4,52.5,42.3,57.0,48.6,39.2,92,87,79,30.28,30.13,4,0,4,0.00
2013-10-31,70.2,64.8,55.6,59.0,56.3,53.4,96,75,56,30.13,29.49,19,2,24,0.07